Time;durP1;ratioP1;P1;durP2;ratioP2;P2;SDS_P1;SDS_P2;PMS_P1;PMS_P2;Temp;Humidity;BMP_temperature;BMP_pressure;BME280_temperature;BME280_humidity;BME280_pressure;Samples;Min_cycle;Max_cycle;Signal;HPM_P1;HPM_P2
2023/01/11 00:00:10;;;;;;;4.70;1.55;;;6.60;99.90;;;;;;4948069;28;20126;-64
2023/01/11 00:02:36;;;;;;;6.90;1.70;;;6.60;99.90;;;;;;4932767;29;20082;-63
2023/01/11 00:05:03;;;;;;;4.00;1.50;;;6.60;99.90;;;;;;4948791;28;20440;-63
2023/01/11 00:07:28;;;;;;;5.38;1.38;;;6.70;99.90;;;;;;4948962;28;20382;-63
2023/01/11 00:09:54;;;;;;;5.82;1.55;;;6.70;99.90;;;;;;4948859;28;20051;-63
2023/01/11 00:12:20;;;;;;;4.85;1.15;;;6.70;99.90;;;;;;4951342;28;20058;-63
2023/01/11 00:14:46;;;;;;;5.60;1.25;;;6.70;99.90;;;;;;4950998;28;20051;-64
2023/01/11 00:17:11;;;;;;;5.95;1.38;;;6.70;99.90;;;;;;4949912;28;20044;-63
2023/01/11 00:19:37;;;;;;;4.13;1.52;;;6.70;99.90;;;;;;4934902;29;20087;-63
2023/01/11 00:22:03;;;;;;;9.48;1.77;;;6.80;99.90;;;;;;4950728;28;20047;-62
2023/01/11 00:24:28;;;;;;;3.00;0.93;;;6.70;99.90;;;;;;4950620;28;20102;-62
2023/01/11 00:26:55;;;;;;;6.18;1.05;;;6.80;99.90;;;;;;4966881;28;20133;-63
2023/01/11 00:29:21;;;;;;;8.15;1.40;;;6.80;99.90;;;;;;4950336;28;20594;-63
2023/01/11 00:31:47;;;;;;;6.30;1.00;;;6.70;99.90;;;;;;4934962;28;20051;-63
2023/01/11 00:34:13;;;;;;;5.18;1.20;;;6.70;99.90;;;;;;4965889;28;20485;-62
2023/01/11 00:36:38;;;;;;;4.30;1.40;;;6.80;99.90;;;;;;4951121;28;20051;-67
2023/01/11 00:39:04;;;;;;;8.43;2.00;;;6.80;99.90;;;;;;4951024;28;20051;-62
2023/01/11 00:49:42;;;;;;;4.65;1.10;;;6.70;99.90;;;;;;4948704;29;20047;-64
2023/01/11 00:52:08;;;;;;;3.03;1.00;;;6.80;99.90;;;;;;4966914;28;20062;-63
2023/01/11 00:54:37;;;;;;;5.22;0.93;;;6.80;99.90;;;;;;4948932;29;20063;-64
2023/01/11 00:57:06;;;;;;;5.10;1.20;;;6.80;99.90;;;;;;4950498;29;20050;-63
2023/01/11 00:59:32;;;;;;;4.10;1.05;;;6.80;99.90;;;;;;4951544;28;20135;-63
2023/01/11 01:01:58;;;;;;;5.05;1.17;;;6.90;99.90;;;;;;4949554;29;20066;-64
2023/01/11 01:04:24;;;;;;;3.15;0.90;;;6.90;99.90;;;;;;4950436;29;20051;-63
2023/01/11 01:06:50;;;;;;;4.72;1.75;;;6.90;99.90;;;;;;4949819;29;20118;-64
2023/01/11 01:09:15;;;;;;;4.45;1.45;;;6.90;99.90;;;;;;4950979;28;20054;-62
2023/01/11 01:11:41;;;;;;;4.82;1.10;;;7.00;99.90;;;;;;4950707;28;20051;-63
2023/01/11 01:14:25;;;;;;;7.13;1.30;;;7.00;99.90;;;;;;4965715;28;20478;-63
2023/01/11 01:17:06;;;;;;;6.72;1.45;;;7.10;99.90;;;;;;4937002;29;20149;-64
2023/01/11 01:19:32;;;;;;;2.00;0.82;;;7.10;99.90;;;;;;4952538;28;20505;-63
2023/01/11 01:21:58;;;;;;;4.82;1.50;;;7.10;99.90;;;;;;4949982;29;20054;-65
2023/01/11 01:24:24;;;;;;;4.47;1.10;;;7.10;99.90;;;;;;4952977;29;20047;-63
2023/01/11 01:26:50;;;;;;;3.97;1.00;;;7.10;99.90;;;;;;4952389;29;20051;-64
2023/01/11 01:29:16;;;;;;;3.58;1.25;;;7.10;99.90;;;;;;4949976;28;20047;-63
2023/01/11 01:31:42;;;;;;;3.00;0.95;;;7.20;99.90;;;;;;4934829;29;20450;-64
2023/01/11 01:34:08;;;;;;;6.07;1.10;;;7.10;99.90;;;;;;4934476;29;20154;-63
2023/01/11 01:36:34;;;;;;;4.47;1.17;;;7.20;99.90;;;;;;4950258;28;20678;-63
2023/01/11 01:39:00;;;;;;;3.20;1.08;;;7.20;99.90;;;;;;4950083;28;20079;-63
2023/01/11 01:41:26;;;;;;;3.63;1.13;;;7.20;99.90;;;;;;4950134;28;20138;-63
2023/01/11 01:43:53;;;;;;;3.65;0.85;;;7.20;99.90;;;;;;4933138;29;20696;-63
2023/01/11 01:46:20;;;;;;;3.17;1.00;;;7.20;99.90;;;;;;4951065;28;20061;-63
2023/01/11 01:48:49;;;;;;;3.95;1.30;;;7.20;99.90;;;;;;4933608;29;20047;-63
2023/01/11 01:51:21;;;;;;;4.57;1.45;;;7.20;99.90;;;;;;4950120;28;20478;-63
2023/01/11 01:53:48;;;;;;;4.95;1.05;;;7.20;99.90;;;;;;4950335;28;20073;-62
2023/01/11 01:56:36;;;;;;;4.07;1.15;;;7.20;99.90;;;;;;4949445;28;20769;-64
2023/01/11 01:59:07;;;;;;;4.45;1.48;;;7.30;99.90;;;;;;4965669;28;20039;-63
2023/01/11 02:01:48;;;;;;;2.72;1.08;;;7.30;99.90;;;;;;4950355;28;20047;-62
2023/01/11 02:04:23;;;;;;;2.58;0.80;;;7.30;99.90;;;;;;4935615;29;20488;-63
2023/01/11 02:06:57;;;;;;;4.22;1.08;;;7.30;99.90;;;;;;4949779;29;20070;-63
2023/01/11 02:09:43;;;;;;;5.93;1.17;;;7.40;99.90;;;;;;4950078;29;20082;-63
2023/01/11 02:12:09;;;;;;;2.05;0.60;;;7.40;99.90;;;;;;4948242;29;20452;-63
2023/01/11 02:14:35;;;;;;;2.78;0.90;;;7.40;99.90;;;;;;4946259;28;20067;-62
2023/01/11 02:17:01;;;;;;;3.00;1.08;;;7.40;99.90;;;;;;4930204;29;20196;-63
2023/01/11 02:19:46;;;;;;;3.08;1.05;;;7.40;99.90;;;;;;4964668;28;20136;-62
2023/01/11 02:22:31;;;;;;;3.13;1.15;;;7.30;99.90;;;;;;4973865;28;20048;-63
2023/01/11 02:25:09;;;;;;;5.28;0.80;;;7.30;99.90;;;;;;4949867;28;20433;-63
2023/01/11 02:28:02;;;;;;;2.60;0.98;;;7.40;99.90;;;;;;4950369;28;20075;-62
2023/01/11 02:30:34;;;;;;;1.83;0.70;;;7.30;99.90;;;;;;4934033;29;20077;-62
2023/01/11 02:33:15;;;;;;;2.55;0.95;;;7.40;99.90;;;;;;4951013;29;20061;-63
2023/01/11 02:35:44;;;;;;;1.27;0.73;;;7.40;99.90;;;;;;4949196;29;20054;-64
2023/01/11 02:38:15;;;;;;;5.28;0.90;;;7.40;99.90;;;;;;4980880;28;20150;-63
2023/01/11 02:40:51;;;;;;;2.85;0.80;;;7.40;99.90;;;;;;4965297;28;20102;-62
2023/01/11 02:46:30;;;;;;;1.63;0.70;;;7.40;99.90;;;;;;4940621;29;20070;-63
2023/01/11 02:49:01;;;;;;;1.55;0.70;;;7.40;99.90;;;;;;4953424;29;20048;-62
2023/01/11 02:51:39;;;;;;;4.05;0.93;;;7.40;99.90;;;;;;4953082;29;20481;-62
2023/01/11 02:54:07;;;;;;;2.80;1.00;;;7.40;99.90;;;;;;4954036;28;20466;-62
2023/01/11 02:56:37;;;;;;;2.90;0.93;;;7.40;99.90;;;;;;4937634;29;20035;-63
2023/01/11 02:59:03;;;;;;;2.20;0.90;;;7.40;99.90;;;;;;4919810;29;20195;-61
2023/01/11 03:01:28;;;;;;;2.78;0.98;;;7.40;99.90;;;;;;4936493;29;20134;-62
2023/01/11 03:03:55;;;;;;;3.15;0.90;;;7.50;99.90;;;;;;4969393;28;20058;-63
2023/01/11 03:06:26;;;;;;;3.47;1.05;;;7.50;99.90;;;;;;4953466;28;20043;-63
2023/01/11 03:09:12;;;;;;;2.15;0.70;;;7.50;99.90;;;;;;4951677;28;20198;-72
2023/01/11 03:15:35;;;;;;;2.78;0.93;;;7.50;99.90;;;;;;4943966;29;20421;-63
2023/01/11 03:18:23;;;;;;;6.30;0.87;;;7.50;99.90;;;;;;4947764;28;20051;-65
2023/01/11 03:20:53;;;;;;;1.90;0.82;;;7.50;99.90;;;;;;4968565;28;20042;-64
2023/01/11 03:23:32;;;;;;;5.25;1.02;;;7.50;99.90;;;;;;4937139;29;20043;-65
2023/01/11 03:26:23;;;;;;;4.88;0.90;;;7.50;99.90;;;;;;4952651;29;20047;-66
2023/01/11 03:29:05;;;;;;;2.55;1.10;;;7.50;99.90;;;;;;4935946;29;20072;-65
2023/01/11 03:31:49;;;;;;;3.28;1.00;;;7.50;99.90;;;;;;4936980;29;20077;-64
2023/01/11 03:34:24;;;;;;;5.82;1.17;;;7.50;99.90;;;;;;4951979;28;20113;-64
2023/01/11 03:37:02;;;;;;;2.40;0.88;;;7.60;99.90;;;;;;4937307;29;20054;-65
2023/01/11 03:39:37;;;;;;;2.78;1.10;;;7.50;99.90;;;;;;4937152;29;20074;-63
2023/01/11 03:42:04;;;;;;;3.38;1.52;;;7.60;99.90;;;;;;4937444;29;20047;-63
2023/01/11 03:44:33;;;;;;;5.20;1.00;;;7.60;99.90;;;;;;4935873;29;20478;-65
2023/01/11 03:47:05;;;;;;;3.38;1.23;;;7.60;99.90;;;;;;4951776;29;20153;-64
2023/01/11 03:49:35;;;;;;;2.88;0.90;;;7.60;99.90;;;;;;4951877;28;20387;-63
2023/01/11 03:52:02;;;;;;;5.28;1.00;;;7.60;99.90;;;;;;4951638;29;20058;-64
2023/01/11 03:54:28;;;;;;;4.35;1.00;;;7.60;99.90;;;;;;4935933;29;20047;-64
2023/01/11 03:57:21;;;;;;;3.55;0.75;;;7.70;99.90;;;;;;4937141;29;20137;-63
2023/01/11 03:59:47;;;;;;;3.53;1.13;;;7.70;99.90;;;;;;4963173;28;20413;-63
2023/01/11 04:02:18;;;;;;;4.57;0.90;;;7.70;99.90;;;;;;4951627;28;20059;-66
2023/01/11 04:04:43;;;;;;;3.08;1.25;;;7.70;99.90;;;;;;4936324;29;20055;-63
2023/01/11 04:07:09;;;;;;;3.53;1.35;;;7.70;99.90;;;;;;4933871;29;20105;-65
2023/01/11 04:09:35;;;;;;;3.40;1.10;;;7.70;99.90;;;;;;4968369;28;20050;-65
2023/01/11 04:12:01;;;;;;;5.10;1.27;;;7.70;99.90;;;;;;4951959;29;20369;-63
2023/01/11 04:14:27;;;;;;;4.10;0.93;;;7.80;99.90;;;;;;4951348;29;20039;-63
2023/01/11 04:16:53;;;;;;;2.47;1.25;;;7.80;99.90;;;;;;4953393;28;20051;-64
2023/01/11 04:19:18;;;;;;;4.32;1.10;;;7.80;99.90;;;;;;4951485;29;20499;-63
2023/01/11 04:21:44;;;;;;;2.88;1.00;;;7.90;99.90;;;;;;4936156;29;20047;-63
2023/01/11 04:24:12;;;;;;;2.28;0.70;;;7.90;99.90;;;;;;4934267;28;20146;-64
2023/01/11 04:26:38;;;;;;;3.92;1.08;;;7.90;99.90;;;;;;4951486;29;20114;-62
2023/01/11 04:29:04;;;;;;;4.10;1.10;;;7.90;99.90;;;;;;4949456;28;20511;-62
2023/01/11 04:31:30;;;;;;;4.75;0.90;;;8.00;99.90;;;;;;4935771;29;20184;-65
2023/01/11 04:33:56;;;;;;;3.13;0.90;;;7.90;99.90;;;;;;4983132;28;20563;-64
2023/01/11 04:36:22;;;;;;;1.58;0.82;;;8.00;99.90;;;;;;4967063;28;20055;-64
2023/01/11 04:38:47;;;;;;;7.00;1.15;;;8.00;99.90;;;;;;4948876;29;20078;-65
2023/01/11 04:43:58;;;;;;;2.60;0.90;;;8.00;99.90;;;;;;4937897;29;20496;-64
2023/01/11 04:46:24;;;;;;;3.88;0.90;;;8.10;99.90;;;;;;4950744;28;20051;-65
2023/01/11 04:48:49;;;;;;;2.40;0.93;;;8.10;99.90;;;;;;4951286;29;20051;-65
2023/01/11 04:51:15;;;;;;;2.85;1.23;;;8.10;99.90;;;;;;4945029;29;20051;-65
2023/01/11 04:53:41;;;;;;;2.97;1.38;;;8.20;99.90;;;;;;4950541;29;20074;-63
2023/01/11 04:56:07;;;;;;;2.08;1.05;;;8.20;99.90;;;;;;4950765;29;20059;-64
2023/01/11 04:58:34;;;;;;;3.30;1.20;;;8.20;99.90;;;;;;4951070;28;20473;-65
2023/01/11 05:00:59;;;;;;;2.10;1.10;;;8.20;99.90;;;;;;4950916;28;20470;-64
2023/01/11 05:03:25;;;;;;;2.03;1.00;;;8.20;99.90;;;;;;4934438;28;20153;-64
2023/01/11 05:05:57;;;;;;;2.25;1.00;;;8.20;99.90;;;;;;4933265;29;20077;-65
2023/01/11 05:08:24;;;;;;;2.35;0.90;;;8.20;99.90;;;;;;4950861;29;20659;-64
2023/01/11 05:11:00;;;;;;;2.22;0.95;;;8.20;99.90;;;;;;4950286;29;20090;-63
2023/01/11 05:13:40;;;;;;;3.92;1.10;;;8.20;99.90;;;;;;4943948;28;20047;-64
2023/01/11 05:16:19;;;;;;;3.38;1.00;;;8.20;99.90;;;;;;4948488;29;20114;-65
2023/01/11 05:18:49;;;;;;;2.83;1.20;;;8.20;99.90;;;;;;4950160;29;20149;-63
2023/01/11 05:21:16;;;;;;;2.45;0.90;;;8.30;99.90;;;;;;4934471;29;20174;-65
2023/01/11 05:23:42;;;;;;;3.80;1.10;;;8.30;99.90;;;;;;4934368;29;20084;-64
2023/01/11 05:26:10;;;;;;;1.98;0.90;;;8.30;99.90;;;;;;4948884;28;20082;-64
2023/01/11 05:28:36;;;;;;;3.05;0.95;;;8.30;99.90;;;;;;4950148;29;20118;-65
2023/01/11 05:31:02;;;;;;;4.53;1.20;;;8.30;99.90;;;;;;4949135;28;20051;-65
2023/01/11 05:33:28;;;;;;;2.00;0.88;;;8.40;99.90;;;;;;4918532;29;20301;-64
2023/01/11 05:36:01;;;;;;;2.85;0.90;;;8.40;99.90;;;;;;4966091;28;20422;-66
2023/01/11 05:38:27;;;;;;;3.53;0.95;;;8.40;99.90;;;;;;4950074;29;20078;-64
2023/01/11 05:41:04;;;;;;;3.38;0.88;;;8.40;99.90;;;;;;4933653;29;20046;-64
2023/01/11 05:43:30;;;;;;;3.70;0.88;;;8.40;99.90;;;;;;4950467;29;20051;-65
2023/01/11 05:45:56;;;;;;;3.33;0.70;;;8.40;99.90;;;;;;4949552;29;20073;-65
2023/01/11 05:48:22;;;;;;;3.50;0.82;;;8.50;99.90;;;;;;4932302;29;20468;-63
2023/01/11 05:50:52;;;;;;;2.50;0.85;;;8.50;99.90;;;;;;4962019;28;20044;-64
2023/01/11 05:53:18;;;;;;;5.68;0.80;;;8.50;99.90;;;;;;4963669;28;20051;-66
2023/01/11 05:55:54;;;;;;;2.38;0.82;;;8.50;99.90;;;;;;4933578;29;20057;-63
2023/01/11 05:58:20;;;;;;;2.33;0.60;;;8.60;99.90;;;;;;4934226;29;20067;-64
2023/01/11 06:00:50;;;;;;;1.85;0.80;;;8.50;99.90;;;;;;4933227;29;20431;-64
2023/01/11 06:03:15;;;;;;;3.65;0.98;;;8.60;99.90;;;;;;4933908;28;20062;-65
2023/01/11 06:05:42;;;;;;;1.23;0.70;;;8.70;99.90;;;;;;4965912;28;20552;-65
2023/01/11 06:08:07;;;;;;;2.63;0.80;;;8.70;99.90;;;;;;4949575;28;20054;-62
2023/01/11 06:10:33;;;;;;;1.17;0.65;;;8.70;99.90;;;;;;4945141;29;20039;-64
2023/01/11 06:15:43;;;;;;;3.72;0.80;;;8.80;99.90;;;;;;4962097;28;20118;-65
2023/01/11 06:18:09;;;;;;;2.08;0.60;;;8.80;99.90;;;;;;4940458;28;20047;-66
2023/01/11 06:20:35;;;;;;;3.00;0.80;;;8.80;99.90;;;;;;4984882;28;20063;-68
2023/01/11 06:23:01;;;;;;;1.55;0.60;;;8.80;99.90;;;;;;4956225;28;20054;-65
2023/01/11 06:25:29;;;;;;;2.10;0.82;;;8.80;99.90;;;;;;4948122;28;20129;-66
2023/01/11 06:27:56;;;;;;;2.08;0.73;;;8.80;99.90;;;;;;4940668;28;20050;-65
2023/01/11 06:30:24;;;;;;;2.60;0.77;;;8.80;99.90;;;;;;4957226;29;20047;-62
2023/01/11 06:32:51;;;;;;;1.70;0.68;;;8.80;99.90;;;;;;4957179;28;20075;-64
2023/01/11 06:35:17;;;;;;;1.42;0.63;;;8.90;99.90;;;;;;4940043;28;20139;-64
2023/01/11 06:37:43;;;;;;;2.50;0.70;;;8.80;99.90;;;;;;4936676;29;20074;-66
2023/01/11 06:40:09;;;;;;;2.28;0.70;;;8.90;99.90;;;;;;4955165;28;20082;-63
2023/01/11 06:42:35;;;;;;;1.55;0.68;;;8.90;99.90;;;;;;4972134;28;20047;-62
2023/01/11 06:45:01;;;;;;;1.05;0.65;;;8.80;99.90;;;;;;4971250;28;20047;-62
2023/01/11 06:47:27;;;;;;;2.05;0.90;;;8.90;99.90;;;;;;4939703;29;20533;-64
2023/01/11 06:49:53;;;;;;;1.35;0.77;;;8.90;99.90;;;;;;4923625;29;20050;-63
2023/01/11 06:52:18;;;;;;;2.22;0.80;;;8.90;99.90;;;;;;4956096;28;20058;-63
2023/01/11 06:54:44;;;;;;;2.72;0.95;;;8.90;99.90;;;;;;4956133;29;20062;-64
2023/01/11 06:57:10;;;;;;;1.15;0.70;;;8.80;99.90;;;;;;4957072;28;20644;-64
2023/01/11 06:59:38;;;;;;;2.70;0.90;;;8.80;99.90;;;;;;4938925;29;20047;-64
2023/01/11 07:02:04;;;;;;;1.35;0.80;;;8.80;99.90;;;;;;4969100;28;20062;-63
2023/01/11 07:04:30;;;;;;;2.35;0.73;;;8.80;99.90;;;;;;4956026;28;20047;-63
2023/01/11 07:06:56;;;;;;;2.35;1.20;;;8.80;99.90;;;;;;4940062;29;20055;-63
2023/01/11 07:09:22;;;;;;;2.55;0.63;;;8.80;99.90;;;;;;4955012;28;20062;-62
2023/01/11 07:11:47;;;;;;;1.52;0.77;;;8.80;99.90;;;;;;4955605;29;20082;-62
2023/01/11 07:14:18;;;;;;;1.25;0.68;;;8.80;99.90;;;;;;4938220;29;20110;-62
2023/01/11 07:16:45;;;;;;;2.50;1.05;;;8.80;99.90;;;;;;4940334;28;20057;-63
2023/01/11 07:19:11;;;;;;;3.00;1.00;;;8.80;99.90;;;;;;4955423;29;20043;-63
2023/01/11 07:21:36;;;;;;;1.23;0.75;;;8.70;99.90;;;;;;4955236;29;20043;-63
2023/01/11 07:24:04;;;;;;;6.63;1.00;;;8.70;99.90;;;;;;4971773;28;20043;-64
2023/01/11 07:26:31;;;;;;;2.05;0.82;;;8.60;99.90;;;;;;4956491;28;20433;-62
2023/01/11 07:28:57;;;;;;;1.85;0.90;;;8.70;99.90;;;;;;4952620;28;20043;-62
2023/01/11 07:31:23;;;;;;;1.48;0.90;;;8.60;99.90;;;;;;4951765;29;20110;-63
2023/01/11 07:33:49;;;;;;;4.05;1.10;;;8.60;99.90;;;;;;4953003;29;20055;-64
2023/01/11 07:36:15;;;;;;;4.45;1.17;;;8.60;99.90;;;;;;4936569;29;20051;-63
2023/01/11 07:38:40;;;;;;;2.05;1.10;;;8.60;99.90;;;;;;4935441;28;20122;-63
2023/01/11 07:43:50;;;;;;;2.85;1.33;;;8.60;99.90;;;;;;4935778;29;20047;-63
2023/01/11 07:46:16;;;;;;;3.80;1.73;;;8.60;99.90;;;;;;4952156;28;20058;-62
2023/01/11 07:48:42;;;;;;;5.00;1.50;;;8.60;99.90;;;;;;4951625;29;20051;-63
2023/01/11 07:51:08;;;;;;;2.75;1.42;;;8.60;99.90;;;;;;4934915;29;20108;-62
2023/01/11 07:53:35;;;;;;;6.50;1.70;;;8.60;99.90;;;;;;4968435;28;20569;-62
2023/01/11 07:56:03;;;;;;;3.58;1.50;;;8.60;99.90;;;;;;4951795;29;20043;-62
2023/01/11 07:58:31;;;;;;;5.20;2.10;;;8.60;99.90;;;;;;4951677;28;20051;-63
2023/01/11 08:00:58;;;;;;;5.50;1.80;;;8.60;99.90;;;;;;4967329;28;20043;-61
2023/01/11 08:03:24;;;;;;;3.90;1.70;;;8.60;99.90;;;;;;4934820;29;21026;-63
2023/01/11 08:05:51;;;;;;;7.18;2.13;;;8.60;99.90;;;;;;4967312;28;20308;-62
2023/01/11 08:08:16;;;;;;;4.68;1.90;;;8.60;99.90;;;;;;4982755;28;20133;-63
2023/01/11 08:10:42;;;;;;;3.13;1.42;;;8.60;99.90;;;;;;4950849;29;20054;-62
2023/01/11 08:15:56;;;;;;;2.85;1.13;;;8.60;99.90;;;;;;4951372;29;20082;-62
2023/01/11 08:18:22;;;;;;;5.10;1.30;;;8.60;99.90;;;;;;4934992;29;20752;-62
2023/01/11 08:20:50;;;;;;;3.65;1.23;;;8.60;99.90;;;;;;4946075;29;20353;-61
2023/01/11 08:23:22;;;;;;;2.53;1.60;;;8.60;99.90;;;;;;4950810;29;20410;-62
2023/01/11 08:25:47;;;;;;;3.35;1.40;;;8.60;99.90;;;;;;4950078;29;20058;-62
2023/01/11 08:28:16;;;;;;;3.53;1.30;;;8.60;99.90;;;;;;4982122;28;20051;-61
2023/01/11 08:30:43;;;;;;;5.03;1.42;;;8.60;99.90;;;;;;4951311;28;20051;-62
2023/01/11 08:33:08;;;;;;;2.70;1.75;;;8.70;99.90;;;;;;4966741;28;20076;-62
2023/01/11 08:35:37;;;;;;;3.28;1.50;;;8.70;99.90;;;;;;4949851;28;20051;-63
2023/01/11 08:38:02;;;;;;;5.95;1.83;;;8.70;99.90;;;;;;4934863;29;20043;-63
2023/01/11 08:40:28;;;;;;;3.83;2.00;;;8.70;99.90;;;;;;4930711;29;20051;-62
2023/01/11 08:42:55;;;;;;;3.88;1.88;;;8.70;99.90;;;;;;4950280;28;20054;-62
2023/01/11 08:45:21;;;;;;;4.28;1.98;;;8.70;99.90;;;;;;4950893;28;20500;-62
2023/01/11 08:47:49;;;;;;;4.22;2.30;;;8.70;99.90;;;;;;4965719;28;20122;-62
2023/01/11 08:50:16;;;;;;;5.22;2.20;;;8.80;99.90;;;;;;4950514;28;20434;-65
2023/01/11 08:52:42;;;;;;;3.25;1.90;;;8.80;99.90;;;;;;4951197;28;20047;-62
2023/01/11 08:55:08;;;;;;;3.15;1.50;;;8.80;99.90;;;;;;4951011;28;20477;-63
2023/01/11 08:57:35;;;;;;;4.50;1.55;;;8.70;99.90;;;;;;4950275;28;20043;-64
2023/01/11 09:00:05;;;;;;;4.45;1.98;;;8.70;99.90;;;;;;4949974;29;20046;-63
2023/01/11 09:02:30;;;;;;;4.30;1.63;;;8.70;99.90;;;;;;4949948;28;20136;-62
2023/01/11 09:04:56;;;;;;;4.68;2.00;;;8.70;99.90;;;;;;4951535;29;20099;-62
2023/01/11 09:07:22;;;;;;;2.78;1.30;;;8.80;99.90;;;;;;4935601;28;20442;-63
2023/01/11 09:09:47;;;;;;;3.00;1.60;;;8.80;99.90;;;;;;4948901;28;20039;-64
2023/01/11 09:12:13;;;;;;;5.55;1.42;;;8.80;99.90;;;;;;4933994;29;20462;-63
2023/01/11 09:14:40;;;;;;;5.47;1.88;;;8.80;99.90;;;;;;4949830;29;20179;-62
2023/01/11 09:17:06;;;;;;;4.90;1.60;;;8.80;99.90;;;;;;4965181;28;20457;-62
2023/01/11 09:19:32;;;;;;;5.35;2.33;;;8.80;99.90;;;;;;4949906;29;20074;-63
2023/01/11 09:22:00;;;;;;;10.93;3.95;;;8.70;99.90;;;;;;4933764;29;20043;-62
2023/01/11 09:24:26;;;;;;;7.35;3.22;;;8.80;99.90;;;;;;4946723;29;20138;-64
2023/01/11 09:26:52;;;;;;;5.32;3.25;;;8.80;99.90;;;;;;4933077;29;20051;-62
2023/01/11 09:29:18;;;;;;;6.03;2.45;;;8.80;99.90;;;;;;4949444;28;20074;-63
2023/01/11 09:31:44;;;;;;;5.18;2.35;;;8.80;99.90;;;;;;4933513;29;20055;-62
2023/01/11 09:34:11;;;;;;;4.20;2.50;;;8.80;99.90;;;;;;4949799;29;20081;-64
2023/01/11 09:36:39;;;;;;;5.65;2.70;;;8.80;99.90;;;;;;4960760;28;20652;-63
2023/01/11 09:39:11;;;;;;;4.82;2.63;;;8.90;99.90;;;;;;4949669;29;20109;-63
2023/01/11 09:41:49;;;;;;;9.27;3.10;;;8.80;99.90;;;;;;4935359;29;20532;-63
2023/01/11 09:44:22;;;;;;;5.68;2.30;;;8.80;99.90;;;;;;4962719;28;20074;-63
2023/01/11 09:46:50;;;;;;;4.78;2.20;;;8.80;99.90;;;;;;4933491;29;20105;-64
2023/01/11 09:49:19;;;;;;;6.88;2.38;;;8.80;99.90;;;;;;4933328;29;20047;-64
2023/01/11 09:51:45;;;;;;;4.18;2.35;;;8.80;99.90;;;;;;4933279;29;20145;-63
2023/01/11 09:54:16;;;;;;;5.18;2.00;;;8.80;99.90;;;;;;4933030;28;20130;-65
2023/01/11 09:56:53;;;;;;;6.00;2.50;;;8.80;99.90;;;;;;4930993;29;20043;-64
2023/01/11 09:59:49;;;;;;;6.07;2.22;;;8.90;99.90;;;;;;4934198;28;20559;-64
2023/01/11 10:02:43;;;;;;;4.70;2.20;;;8.90;99.90;;;;;;4943912;29;20553;-64
2023/01/11 10:05:21;;;;;;;5.45;1.80;;;8.90;99.90;;;;;;4948778;29;20113;-63
2023/01/11 10:07:57;;;;;;;5.15;2.17;;;8.90;99.90;;;;;;4949163;29;20043;-65
2023/01/11 10:10:50;;;;;;;3.70;1.88;;;8.90;99.90;;;;;;4950351;28;20050;-63
2023/01/11 10:13:47;;;;;;;4.60;1.85;;;9.00;99.90;;;;;;4949945;28;20143;-63
2023/01/11 10:16:27;;;;;;;6.00;1.83;;;9.00;99.90;;;;;;4964503;28;20517;-63
2023/01/11 10:19:04;;;;;;;6.22;2.78;;;9.00;99.90;;;;;;4950289;28;20102;-63
2023/01/11 10:21:53;;;;;;;4.35;2.50;;;9.00;99.90;;;;;;4950042;29;20043;-63
2023/01/11 10:24:25;;;;;;;5.38;2.20;;;9.00;99.90;;;;;;4948899;29;20047;-64
2023/01/11 10:26:55;;;;;;;4.35;2.25;;;9.10;99.90;;;;;;4950684;28;20047;-64
2023/01/11 10:29:41;;;;;;;5.38;2.20;;;9.00;99.90;;;;;;4933761;28;20058;-62
2023/01/11 10:39:00;;;;;;;5.18;2.60;;;9.00;99.90;;;;;;4941297;29;20047;-63
2023/01/11 10:41:51;;;;;;;5.20;2.53;;;8.90;99.90;;;;;;4956885;28;20126;-63
2023/01/11 10:44:36;;;;;;;5.70;1.52;;;8.90;99.90;;;;;;4932233;29;20051;-62
2023/01/11 10:47:02;;;;;;;3.60;1.05;;;8.90;99.90;;;;;;4926459;29;20074;-62
2023/01/11 10:49:49;;;;;;;2.05;0.90;;;8.90;99.90;;;;;;4932900;29;20050;-63
2023/01/11 10:52:35;;;;;;;1.92;1.00;;;8.80;99.90;;;;;;4946369;29;20465;-62
2023/01/11 10:55:11;;;;;;;2.45;1.25;;;8.80;99.90;;;;;;4934518;28;20056;-63
2023/01/11 10:57:54;;;;;;;2.15;1.00;;;8.90;99.90;;;;;;4917359;29;20047;-64
2023/01/11 11:00:31;;;;;;;1.80;1.15;;;8.90;99.90;;;;;;4942866;28;20379;-62
2023/01/11 11:03:22;;;;;;;1.80;1.08;;;8.90;99.90;;;;;;4944113;28;20094;-63
2023/01/11 11:05:58;;;;;;;2.88;1.40;;;8.90;99.90;;;;;;4952838;29;20055;-63
2023/01/11 11:08:25;;;;;;;3.20;1.40;;;8.90;99.90;;;;;;4932984;29;20504;-63
2023/01/11 11:10:55;;;;;;;2.88;1.20;;;9.00;99.90;;;;;;4953380;28;20047;-62
2023/01/11 11:13:42;;;;;;;10.57;1.33;;;9.00;99.90;;;;;;4952980;28;20047;-63
2023/01/11 11:16:11;;;;;;;2.60;1.40;;;9.00;99.90;;;;;;4951805;29;20043;-63
2023/01/11 11:18:42;;;;;;;1.85;0.80;;;9.00;99.90;;;;;;4952207;28;20043;-64
2023/01/11 11:21:19;;;;;;;1.02;0.70;;;9.00;99.90;;;;;;4951615;28;20054;-63
2023/01/11 11:23:45;;;;;;;1.63;1.10;;;9.00;99.90;;;;;;4944804;29;20134;-63
2023/01/11 11:26:11;;;;;;;3.67;1.65;;;9.00;99.90;;;;;;4952185;29;20138;-64
2023/01/11 11:28:36;;;;;;;1.88;1.05;;;9.00;99.90;;;;;;4950570;29;20081;-63
2023/01/11 11:31:04;;;;;;;2.35;1.17;;;9.00;99.90;;;;;;4951588;29;20094;-63
2023/01/11 11:33:36;;;;;;;4.28;1.80;;;9.00;99.90;;;;;;4935215;29;20055;-63
2023/01/11 11:36:04;;;;;;;3.38;1.48;;;9.00;99.90;;;;;;4929336;29;20043;-63
2023/01/11 11:38:31;;;;;;;3.87;1.80;;;9.00;99.90;;;;;;4921230;29;20039;-62
2023/01/11 11:41:03;;;;;;;6.38;2.50;;;9.10;99.90;;;;;;4952046;28;20313;-63
2023/01/11 11:43:29;;;;;;;5.32;3.75;;;9.10;99.90;;;;;;4952483;29;20053;-63
2023/01/11 11:46:14;;;;;;;6.25;3.22;;;9.10;99.90;;;;;;4951189;29;20055;-63
2023/01/11 11:48:42;;;;;;;4.20;2.10;;;9.10;99.90;;;;;;4944438;29;20051;-64
2023/01/11 11:51:20;;;;;;;4.35;2.45;;;9.10;99.90;;;;;;4951745;29;20065;-63
2023/01/11 11:53:54;;;;;;;5.20;2.60;;;9.20;99.90;;;;;;4936088;29;20047;-63
2023/01/11 11:56:33;;;;;;;9.60;3.47;;;9.20;99.90;;;;;;4967458;28;20043;-63
2023/01/11 11:59:04;;;;;;;6.32;3.42;;;9.20;99.90;;;;;;4935415;29;20054;-65
2023/01/11 12:01:34;;;;;;;6.20;3.10;;;9.20;99.90;;;;;;4935686;29;20055;-63
2023/01/11 12:04:11;;;;;;;6.07;2.95;;;9.20;99.90;;;;;;4951257;29;20051;-63
2023/01/11 12:06:38;;;;;;;6.97;2.55;;;9.20;99.90;;;;;;4932213;29;20162;-63
2023/01/11 12:09:08;;;;;;;3.17;1.55;;;9.20;99.90;;;;;;4935398;28;20465;-63
2023/01/11 12:11:35;;;;;;;3.25;1.50;;;9.20;99.90;;;;;;4951452;29;20157;-63
2023/01/11 12:14:12;;;;;;;2.95;1.48;;;9.20;99.90;;;;;;4950604;28;20082;-63
2023/01/11 12:16:44;;;;;;;2.05;1.00;;;9.20;99.90;;;;;;4951195;29;20047;-63
2023/01/11 12:19:29;;;;;;;2.35;1.13;;;9.20;99.90;;;;;;4967499;28;20043;-63
2023/01/11 12:22:20;;;;;;;2.58;1.30;;;9.20;99.90;;;;;;4945538;29;20130;-64
2023/01/11 12:24:47;;;;;;;4.90;1.60;;;9.20;99.90;;;;;;4951674;29;20055;-64
2023/01/11 12:27:23;;;;;;;3.97;2.13;;;9.20;99.90;;;;;;4950717;29;20058;-63
2023/01/11 12:30:15;;;;;;;2.60;1.00;;;9.10;99.90;;;;;;4950895;28;20425;-64
2023/01/11 12:33:00;;;;;;;1.48;0.77;;;9.10;99.90;;;;;;4940073;29;20118;-63
2023/01/11 12:35:54;;;;;;;1.10;0.70;;;9.10;99.90;;;;;;4946144;28;20125;-62
2023/01/11 12:38:35;;;;;;;3.35;1.05;;;9.10;99.90;;;;;;4949456;29;20473;-64
2023/01/11 12:41:14;;;;;;;3.03;0.80;;;9.10;99.90;;;;;;4961243;28;20070;-62
2023/01/11 12:43:58;;;;;;;3.72;1.10;;;9.00;99.90;;;;;;4950491;29;20476;-62
2023/01/11 12:46:52;;;;;;;3.88;1.17;;;9.00;99.90;;;;;;4950054;29;20114;-62
2023/01/11 12:49:35;;;;;;;4.03;1.20;;;9.10;99.90;;;;;;4918313;29;20057;-63
2023/01/11 12:52:16;;;;;;;3.55;1.20;;;9.00;99.90;;;;;;4952483;28;20071;-63
2023/01/11 12:55:20;;;;;;;2.53;1.20;;;9.00;99.90;;;;;;4950939;29;20066;-63
2023/01/11 12:58:06;;;;;;;1.90;1.15;;;9.10;99.90;;;;;;4947554;28;20059;-62
2023/01/11 13:00:57;;;;;;;3.25;1.20;;;9.00;99.90;;;;;;4950385;29;20354;-64
2023/01/11 13:04:00;;;;;;;1.92;1.00;;;9.10;99.90;;;;;;4962337;28;20062;-63
2023/01/11 13:06:42;;;;;;;2.17;0.85;;;9.10;99.90;;;;;;4933769;29;20047;-65
2023/01/11 13:09:29;;;;;;;2.25;1.02;;;9.10;99.90;;;;;;4919775;29;20328;-63
2023/01/11 13:12:13;;;;;;;2.30;0.90;;;9.10;99.90;;;;;;4966091;28;20051;-63
2023/01/11 13:14:42;;;;;;;2.25;0.98;;;9.10;99.90;;;;;;4951567;29;20161;-63
2023/01/11 13:17:11;;;;;;;1.63;0.95;;;9.20;99.90;;;;;;4950634;29;20536;-63
2023/01/11 13:19:52;;;;;;;1.85;0.98;;;9.20;99.90;;;;;;4951764;28;20054;-65
2023/01/11 13:22:20;;;;;;;1.63;1.00;;;9.20;99.90;;;;;;4950324;28;20051;-63
2023/01/11 13:24:46;;;;;;;3.05;1.50;;;9.10;99.90;;;;;;4933147;28;20055;-63
2023/01/11 13:27:15;;;;;;;3.13;1.20;;;9.10;99.90;;;;;;4965319;28;20058;-63
2023/01/11 13:29:47;;;;;;;2.03;1.40;;;9.10;99.90;;;;;;4933818;29;20047;-63
2023/01/11 13:32:18;;;;;;;2.38;1.20;;;9.10;99.90;;;;;;4933984;29;20062;-63
2023/01/11 13:34:46;;;;;;;2.05;1.23;;;9.10;99.90;;;;;;4966425;28;20078;-63
2023/01/11 13:37:42;;;;;;;2.25;1.38;;;9.10;99.90;;;;;;4949968;28;20046;-63
2023/01/11 13:40:37;;;;;;;2.17;1.27;;;9.00;99.90;;;;;;4949775;28;20369;-64
2023/01/11 13:43:12;;;;;;;2.72;1.65;;;9.00;99.90;;;;;;4981708;28;20053;-64
2023/01/11 13:46:02;;;;;;;2.13;1.20;;;9.00;99.90;;;;;;4933805;29;20473;-64
2023/01/11 13:48:32;;;;;;;3.50;1.80;;;9.00;99.90;;;;;;4934198;29;20373;-64
2023/01/11 13:51:17;;;;;;;3.33;1.50;;;9.00;99.90;;;;;;4933373;29;20047;-64